Time;durP1;ratioP1;P1;durP2;ratioP2;P2;SDS_P1;SDS_P2;PMS_P1;PMS_P2;Temp;Humidity;BMP_temperature;BMP_pressure;BME280_temperature;BME280_humidity;BME280_pressure;Samples;Min_cycle;Max_cycle;Signal;HPM_P1;HPM_P2
2021/04/18 00:00:33;;;;;;;19.45;10.23;;;9.70;75.40;;;;;;1779307;80;21289;-72
2021/04/18 00:03:03;;;;;;;16.45;9.95;;;9.70;73.20;;;;;;1779321;80;21149;-71
2021/04/18 00:05:32;;;;;;;16.95;10.25;;;9.60;75.40;;;;;;1779299;80;21279;-73
2021/04/18 00:08:04;;;;;;;14.90;8.38;;;9.50;74.40;;;;;;1779849;80;21540;-73
2021/04/18 00:10:35;;;;;;;14.25;8.53;;;9.50;75.60;;;;;;1779309;80;21091;-74
2021/04/18 00:13:06;;;;;;;13.80;7.83;;;9.50;75.40;;;;;;1779288;80;21288;-74
2021/04/18 00:15:34;;;;;;;14.87;8.03;;;9.50;75.30;;;;;;1779667;80;21134;-74
2021/04/18 00:18:02;;;;;;;12.45;7.58;;;9.40;74.60;;;;;;1779273;80;21284;-74
2021/04/18 00:20:31;;;;;;;14.78;8.60;;;9.40;73.30;;;;;;1779276;80;21300;-74
2021/04/18 00:22:58;;;;;;;13.80;8.03;;;9.40;72.70;;;;;;1779271;80;21295;-74
2021/04/18 00:25:27;;;;;;;12.10;7.45;;;9.40;72.90;;;;;;1779264;81;21110;-74
2021/04/18 00:27:55;;;;;;;13.75;7.97;;;9.50;73.00;;;;;;1779652;81;21576;-74
2021/04/18 00:30:24;;;;;;;11.57;6.87;;;9.60;73.20;;;;;;1770081;80;21300;-74
2021/04/18 00:32:54;;;;;;;12.03;6.90;;;9.60;74.10;;;;;;1744577;82;21311;-74
2021/04/18 00:35:21;;;;;;;11.43;7.17;;;9.60;74.60;;;;;;1745780;82;21711;-74
2021/04/18 00:37:49;;;;;;;12.05;7.45;;;9.70;74.20;;;;;;1745630;82;21146;-74
2021/04/18 00:40:22;;;;;;;12.98;7.80;;;9.60;73.20;;;;;;1745870;82;21301;-74
2021/04/18 00:42:52;;;;;;;11.63;7.10;;;9.60;75.10;;;;;;1745887;82;21182;-74
2021/04/18 00:45:22;;;;;;;11.50;6.60;;;9.60;76.00;;;;;;1745626;82;21186;-74
2021/04/18 00:47:53;;;;;;;10.78;6.40;;;9.50;76.70;;;;;;1745604;82;21153;-74
2021/04/18 00:50:29;;;;;;;10.53;6.50;;;9.40;74.70;;;;;;1745890;82;21668;-74
2021/04/18 00:52:57;;;;;;;10.53;6.08;;;9.40;73.60;;;;;;1745930;82;21110;-74
2021/04/18 00:55:28;;;;;;;10.78;6.50;;;9.50;74.30;;;;;;1745702;82;21173;-74
2021/04/18 00:57:57;;;;;;;12.33;6.42;;;9.70;73.70;;;;;;1745608;82;21146;-74
2021/04/18 01:00:26;;;;;;;11.00;6.92;;;9.60;75.10;;;;;;1745783;82;21300;-72
2021/04/18 01:02:54;;;;;;;10.28;6.67;;;9.60;75.40;;;;;;1745659;82;21173;-72
2021/04/18 01:05:23;;;;;;;11.83;7.45;;;9.60;75.30;;;;;;1745684;82;21605;-72
2021/04/18 01:07:53;;;;;;;10.75;6.65;;;9.50;75.00;;;;;;1745776;82;21137;-72
2021/04/18 01:10:21;;;;;;;9.83;6.17;;;9.50;75.50;;;;;;1745680;82;21612;-72
2021/04/18 01:12:50;;;;;;;11.33;6.80;;;9.50;75.90;;;;;;1716255;82;21123;-72
2021/04/18 01:15:19;;;;;;;10.55;6.62;;;9.60;75.40;;;;;;1745597;82;21604;-72
2021/04/18 01:17:47;;;;;;;10.35;6.70;;;9.60;75.00;;;;;;1745576;82;21161;-72
2021/04/18 01:20:21;;;;;;;12.35;7.78;;;9.60;75.20;;;;;;1745763;82;21158;-71
2021/04/18 01:22:52;;;;;;;10.18;6.28;;;9.60;76.80;;;;;;1745783;82;21165;-72
2021/04/18 01:25:42;;;;;;;11.88;6.33;;;9.50;76.40;;;;;;1744517;82;21134;-72
2021/04/18 01:28:17;;;;;;;12.58;7.40;;;9.50;76.40;;;;;;1745697;82;21146;-72
2021/04/18 01:30:45;;;;;;;11.45;7.35;;;9.60;75.60;;;;;;1755640;80;21169;-72
2021/04/18 01:33:13;;;;;;;12.60;7.20;;;9.60;74.50;;;;;;1779323;80;21723;-72
2021/04/18 01:35:46;;;;;;;13.68;7.00;;;9.60;73.80;;;;;;1779420;81;21149;-72
2021/04/18 01:38:13;;;;;;;12.00;7.37;;;9.70;74.00;;;;;;1779098;80;21312;-72
2021/04/18 01:40:42;;;;;;;9.75;5.40;;;9.70;74.20;;;;;;1779538;80;21142;-72
2021/04/18 01:43:17;;;;;;;12.35;5.47;;;9.70;73.60;;;;;;1779383;81;21157;-72
2021/04/18 01:45:48;;;;;;;8.98;5.25;;;9.60;74.40;;;;;;1779238;80;21288;-72
2021/04/18 01:48:17;;;;;;;10.58;6.10;;;9.60;75.70;;;;;;1779260;81;21272;-72
2021/04/18 01:50:51;;;;;;;12.63;7.00;;;9.60;76.60;;;;;;1779301;80;21327;-72
2021/04/18 01:53:20;;;;;;;13.05;7.35;;;9.60;76.60;;;;;;1779275;80;21275;-72
2021/04/18 01:55:50;;;;;;;9.28;5.72;;;9.70;75.70;;;;;;1778967;80;21560;-72
2021/04/18 01:58:17;;;;;;;10.03;6.55;;;9.70;76.80;;;;;;1779209;81;21149;-72
2021/04/18 02:00:50;;;;;;;10.58;6.45;;;9.70;77.00;;;;;;1778127;80;21272;-72
2021/04/18 02:03:18;;;;;;;11.75;6.75;;;9.70;76.00;;;;;;1779288;81;21162;-72
2021/04/18 02:05:46;;;;;;;11.83;6.85;;;9.60;78.30;;;;;;1779212;80;21279;-72
2021/04/18 02:08:18;;;;;;;11.05;6.92;;;9.60;79.30;;;;;;1779148;80;21719;-72
2021/04/18 02:10:48;;;;;;;14.15;7.53;;;9.50;79.20;;;;;;1779216;80;21292;-72
2021/04/18 02:13:16;;;;;;;13.80;8.40;;;9.60;78.90;;;;;;1779226;80;21295;-72
2021/04/18 02:15:48;;;;;;;15.60;8.08;;;9.60;78.80;;;;;;1705991;80;21141;-73
2021/04/18 02:18:17;;;;;;;12.00;6.85;;;9.50;79.50;;;;;;1779275;80;21287;-72
2021/04/18 02:20:46;;;;;;;13.43;7.53;;;9.50;80.60;;;;;;1779208;80;21284;-73
2021/04/18 02:23:14;;;;;;;13.45;8.10;;;9.50;77.50;;;;;;1757451;81;21635;-72
2021/04/18 02:25:43;;;;;;;12.80;7.95;;;9.60;77.60;;;;;;1757753;81;21149;-73
2021/04/18 02:28:13;;;;;;;10.98;6.62;;;9.60;77.80;;;;;;1779437;80;21624;-72
2021/04/18 02:30:40;;;;;;;9.73;6.62;;;9.60;78.30;;;;;;1779067;80;21299;-72
2021/04/18 02:33:08;;;;;;;11.53;6.87;;;9.50;79.30;;;;;;1779310;81;21142;-72
2021/04/18 02:35:37;;;;;;;11.83;7.20;;;9.50;78.80;;;;;;1779284;80;21291;-72
2021/04/18 02:38:05;;;;;;;10.43;6.78;;;9.50;76.90;;;;;;1779212;81;21174;-72
2021/04/18 02:40:32;;;;;;;10.35;5.97;;;9.50;77.30;;;;;;1779276;80;21741;-72
2021/04/18 02:43:00;;;;;;;10.95;6.95;;;9.40;79.10;;;;;;1779180;80;21718;-73
2021/04/18 02:45:30;;;;;;;12.10;7.05;;;9.50;78.20;;;;;;1779194;80;21283;-73
2021/04/18 02:47:57;;;;;;;11.90;7.03;;;9.50;77.30;;;;;;1779357;81;21141;-73
2021/04/18 02:50:26;;;;;;;10.75;7.17;;;9.50;77.50;;;;;;1779200;80;21295;-72
2021/04/18 02:52:53;;;;;;;12.13;6.75;;;9.50;77.20;;;;;;1779357;80;21256;-73
2021/04/18 02:55:21;;;;;;;9.65;6.25;;;9.50;78.00;;;;;;1779293;80;21711;-73
2021/04/18 02:57:54;;;;;;;9.58;6.10;;;9.40;79.70;;;;;;1713261;80;21617;-72
2021/04/18 03:00:22;;;;;;;14.10;6.83;;;9.40;78.60;;;;;;1779388;81;21173;-73
2021/04/18 03:02:52;;;;;;;9.33;6.08;;;9.30;77.80;;;;;;1779154;80;21173;-73
2021/04/18 03:05:21;;;;;;;8.98;5.80;;;9.40;78.00;;;;;;1779211;80;21309;-73
2021/04/18 03:07:51;;;;;;;8.70;5.40;;;9.50;76.90;;;;;;1778531;80;21284;-73
2021/04/18 03:10:19;;;;;;;8.18;5.30;;;9.50;79.60;;;;;;1779362;80;21722;-73
2021/04/18 03:12:47;;;;;;;10.68;6.53;;;9.60;79.20;;;;;;1779178;80;21315;-73
2021/04/18 03:15:16;;;;;;;14.60;6.72;;;9.50;77.10;;;;;;1779142;80;21307;-73
2021/04/18 03:17:45;;;;;;;9.60;5.37;;;9.60;77.70;;;;;;1779058;80;21194;-73
2021/04/18 03:20:15;;;;;;;9.98;6.70;;;9.50;78.40;;;;;;1779457;80;21276;-73
2021/04/18 03:22:44;;;;;;;10.90;6.33;;;9.40;77.50;;;;;;1779308;80;21292;-73
2021/04/18 03:25:13;;;;;;;9.20;5.97;;;9.40;78.70;;;;;;1779527;80;21133;-73
2021/04/18 03:27:41;;;;;;;10.00;6.08;;;9.40;79.40;;;;;;1779521;81;21537;-73
2021/04/18 03:30:13;;;;;;;9.30;6.05;;;9.30;79.70;;;;;;1779334;80;21134;-73
2021/04/18 03:32:42;;;;;;;10.85;5.97;;;9.30;80.20;;;;;;1785171;80;21148;-73
2021/04/18 03:35:13;;;;;;;9.20;5.40;;;9.20;80.30;;;;;;1787570;80;21160;-73
2021/04/18 03:37:43;;;;;;;10.58;5.53;;;9.20;82.20;;;;;;1787698;80;21161;-73
2021/04/18 03:40:12;;;;;;;8.85;5.67;;;9.20;83.10;;;;;;1787897;80;21295;-73
2021/04/18 03:42:40;;;;;;;13.00;7.40;;;9.30;82.20;;;;;;1757144;80;21607;-72
2021/04/18 03:45:10;;;;;;;11.50;7.80;;;9.30;81.20;;;;;;1787778;80;21576;-73
2021/04/18 03:47:38;;;;;;;13.93;7.42;;;9.30;79.90;;;;;;1757603;80;21144;-73
2021/04/18 03:50:10;;;;;;;9.85;5.42;;;9.30;80.00;;;;;;1788202;80;21140;-72
2021/04/18 03:52:55;;;;;;;10.53;6.12;;;9.20;82.10;;;;;;1760349;80;21572;-72
2021/04/18 03:55:25;;;;;;;11.03;6.67;;;9.20;83.30;;;;;;1787623;80;21125;-72
2021/04/18 03:57:54;;;;;;;10.68;6.03;;;9.20;82.00;;;;;;1787581;80;21152;-72
2021/04/18 04:00:23;;;;;;;8.88;5.95;;;9.20;83.80;;;;;;1787585;80;21148;-72
2021/04/18 04:02:55;;;;;;;9.23;5.90;;;9.30;82.80;;;;;;1787150;80;21327;-72
2021/04/18 04:05:24;;;;;;;10.08;6.30;;;9.30;83.20;;;;;;1787668;80;21596;-72
2021/04/18 04:07:53;;;;;;;12.73;7.37;;;9.20;83.20;;;;;;1757109;80;21149;-72
2021/04/18 04:10:21;;;;;;;11.03;6.97;;;9.30;82.90;;;;;;1787963;80;21141;-73
2021/04/18 04:12:51;;;;;;;11.20;6.85;;;9.30;82.70;;;;;;1787549;80;21137;-72
2021/04/18 04:15:20;;;;;;;13.25;8.20;;;9.20;82.20;;;;;;1787568;80;21137;-72
2021/04/18 04:17:49;;;;;;;12.15;6.87;;;9.20;79.90;;;;;;1787579;80;21141;-72
2021/04/18 04:20:36;;;;;;;12.30;7.05;;;9.20;80.40;;;;;;1787702;80;21113;-72
2021/04/18 04:23:22;;;;;;;11.22;7.20;;;9.20;80.80;;;;;;1787803;80;21703;-72
2021/04/18 04:25:50;;;;;;;11.00;7.25;;;9.20;81.20;;;;;;1787540;80;21144;-74
2021/04/18 04:28:18;;;;;;;10.85;6.80;;;9.20;80.60;;;;;;1787569;80;21144;-72
2021/04/18 04:30:45;;;;;;;11.20;6.72;;;9.30;81.30;;;;;;1787500;80;21157;-73
2021/04/18 04:33:13;;;;;;;13.00;7.75;;;9.40;81.10;;;;;;1787596;80;21161;-71
2021/04/18 04:35:41;;;;;;;13.48;7.70;;;9.40;80.00;;;;;;1787767;80;21588;-71
2021/04/18 04:38:09;;;;;;;9.95;6.55;;;9.50;79.30;;;;;;1787550;80;21608;-72
2021/04/18 04:40:37;;;;;;;9.33;5.85;;;9.50;80.00;;;;;;1787497;80;21114;-71
2021/04/18 04:43:04;;;;;;;8.83;5.60;;;9.50;81.60;;;;;;1787534;80;21180;-72
2021/04/18 04:45:33;;;;;;;8.85;6.08;;;9.50;81.10;;;;;;1787746;80;21156;-71
2021/04/18 04:48:01;;;;;;;9.55;5.83;;;9.50;81.30;;;;;;1787689;80;21295;-72
2021/04/18 04:50:29;;;;;;;10.18;5.75;;;9.50;80.70;;;;;;1787520;80;21149;-72
2021/04/18 04:52:59;;;;;;;10.50;5.83;;;9.50;82.40;;;;;;1787776;80;21136;-72
2021/04/18 04:55:27;;;;;;;13.25;6.03;;;9.50;82.50;;;;;;1787724;80;21587;-72
2021/04/18 04:57:55;;;;;;;12.78;6.65;;;9.70;81.40;;;;;;1757330;80;21141;-72
2021/04/18 05:00:23;;;;;;;8.40;5.78;;;9.70;82.00;;;;;;1787507;80;21141;-72
2021/04/18 05:02:51;;;;;;;12.75;7.83;;;9.80;80.60;;;;;;1787457;80;21157;-72
2021/04/18 05:05:19;;;;;;;12.07;8.13;;;9.80;80.50;;;;;;1787500;80;21157;-72
2021/04/18 05:07:47;;;;;;;13.05;7.90;;;9.90;79.60;;;;;;1787786;80;21595;-73
2021/04/18 05:10:15;;;;;;;13.50;8.25;;;10.00;79.50;;;;;;1787526;80;21156;-72
2021/04/18 05:12:44;;;;;;;15.08;7.97;;;10.10;80.90;;;;;;1787451;80;21151;-72
2021/04/18 05:15:12;;;;;;;13.28;8.33;;;10.10;79.40;;;;;;1787506;80;21118;-72
2021/04/18 05:17:40;;;;;;;16.77;8.75;;;10.30;77.70;;;;;;1787509;80;21145;-72
2021/04/18 05:20:10;;;;;;;13.53;8.85;;;10.40;76.50;;;;;;1787692;80;21311;-72
2021/04/18 05:22:38;;;;;;;13.40;8.88;;;10.30;77.30;;;;;;1787423;80;21145;-72
2021/04/18 05:25:07;;;;;;;16.80;11.70;;;10.30;78.10;;;;;;1787489;80;21162;-72
2021/04/18 05:27:35;;;;;;;18.27;10.43;;;10.40;78.80;;;;;;1787685;80;21161;-72
2021/04/18 05:30:07;;;;;;;17.85;9.40;;;10.50;77.10;;;;;;1787459;80;21148;-72
2021/04/18 05:32:36;;;;;;;14.95;9.40;;;10.50;77.50;;;;;;1782959;80;21193;-72
2021/04/18 05:35:08;;;;;;;18.62;9.73;;;10.60;77.20;;;;;;1779224;80;21153;-72
2021/04/18 05:37:36;;;;;;;16.80;10.48;;;10.60;75.60;;;;;;1779219;80;21295;-72
2021/04/18 05:40:07;;;;;;;16.85;10.48;;;10.70;75.70;;;;;;1779321;80;21284;-72
2021/04/18 05:42:34;;;;;;;16.07;10.53;;;10.70;75.00;;;;;;1779505;81;21145;-72
2021/04/18 05:45:03;;;;;;;18.05;10.93;;;10.70;75.30;;;;;;1779420;80;21149;-72
2021/04/18 05:47:31;;;;;;;22.27;12.70;;;10.70;75.80;;;;;;1779225;80;21264;-72
2021/04/18 05:49:59;;;;;;;20.08;12.90;;;10.70;75.60;;;;;;1779196;80;21279;-72
2021/04/18 05:52:27;;;;;;;19.50;12.65;;;10.80;75.40;;;;;;1779193;80;21114;-72
2021/04/18 05:54:55;;;;;;;22.80;12.58;;;10.80;75.40;;;;;;1779211;80;21193;-72
2021/04/18 05:57:23;;;;;;;22.73;12.53;;;10.80;75.00;;;;;;1779186;80;21118;-72
2021/04/18 05:59:51;;;;;;;21.68;12.70;;;10.80;74.90;;;;;;1779377;80;21142;-72
2021/04/18 06:02:18;;;;;;;21.45;12.58;;;10.80;75.40;;;;;;1779259;80;21600;-71
2021/04/18 06:04:47;;;;;;;23.00;14.28;;;10.70;75.60;;;;;;1779209;80;21342;-72
2021/04/18 06:07:15;;;;;;;24.57;14.28;;;10.70;74.80;;;;;;1779168;80;21303;-72
2021/04/18 06:09:43;;;;;;;23.60;13.95;;;10.80;74.80;;;;;;1779475;81;21177;-72
2021/04/18 06:12:11;;;;;;;28.73;15.23;;;10.90;74.30;;;;;;1779320;80;21155;-72
2021/04/18 06:14:39;;;;;;;30.25;16.05;;;10.90;73.50;;;;;;1779382;81;21588;-73
2021/04/18 06:17:06;;;;;;;25.55;16.15;;;10.80;73.90;;;;;;1779206;81;21313;-73
2021/04/18 06:19:35;;;;;;;23.80;16.00;;;10.90;73.80;;;;;;1779295;80;21271;-73
2021/04/18 06:22:02;;;;;;;33.25;16.32;;;10.80;73.40;;;;;;1757398;81;21174;-73
2021/04/18 06:24:30;;;;;;;31.90;17.60;;;10.80;73.20;;;;;;1779177;80;21182;-73
2021/04/18 06:26:58;;;;;;;25.60;15.53;;;10.80;73.20;;;;;;1779255;81;21169;-72
2021/04/18 06:29:26;;;;;;;25.37;15.32;;;10.80;73.50;;;;;;1779374;81;21165;-73
2021/04/18 06:31:54;;;;;;;25.62;15.70;;;10.80;72.90;;;;;;1779135;80;21307;-73
2021/04/18 06:34:23;;;;;;;25.37;14.55;;;10.80;72.30;;;;;;1779302;81;21275;-74
2021/04/18 06:36:51;;;;;;;26.00;13.90;;;10.80;72.50;;;;;;1779365;80;21110;-73
2021/04/18 06:39:20;;;;;;;23.02;13.88;;;10.90;72.20;;;;;;1779349;80;21141;-74
2021/04/18 06:41:58;;;;;;;20.32;11.30;;;10.90;71.90;;;;;;1779165;81;21287;-73
2021/04/18 06:44:29;;;;;;;20.55;12.37;;;10.90;70.60;;;;;;1779367;80;21215;-73
2021/04/18 06:47:00;;;;;;;20.25;11.68;;;10.90;69.90;;;;;;1779402;81;21283;-73
2021/04/18 06:49:29;;;;;;;21.75;12.82;;;10.90;70.20;;;;;;1779176;80;21300;-73
2021/04/18 06:51:57;;;;;;;19.20;11.68;;;10.90;70.00;;;;;;1779374;80;21153;-73
2021/04/18 06:54:25;;;;;;;19.67;12.35;;;10.90;70.30;;;;;;1779360;81;21153;-73
2021/04/18 06:56:52;;;;;;;22.45;12.68;;;10.80;71.50;;;;;;1779541;80;21141;-73
2021/04/18 06:59:20;;;;;;;25.57;13.60;;;10.90;72.20;;;;;;1779529;80;21157;-72
2021/04/18 07:01:48;;;;;;;24.30;14.20;;;10.90;72.70;;;;;;1779436;81;21588;-73
2021/04/18 07:04:22;;;;;;;22.20;13.90;;;10.80;72.70;;;;;;1779297;81;21185;-73
2021/04/18 07:06:52;;;;;;;22.60;13.13;;;10.80;74.40;;;;;;1779853;81;21154;-73
2021/04/18 07:09:23;;;;;;;19.87;12.47;;;10.80;74.30;;;;;;1779448;80;21723;-73
2021/04/18 07:11:54;;;;;;;25.90;13.05;;;10.90;74.90;;;;;;1779469;81;21154;-73
2021/04/18 07:14:35;;;;;;;13.62;7.97;;;10.90;73.60;;;;;;1779539;81;21115;-73
2021/04/18 07:17:13;;;;;;;10.35;6.60;;;10.80;68.80;;;;;;1779352;81;21130;-73
2021/04/18 07:19:46;;;;;;;10.10;6.65;;;10.70;67.60;;;;;;1779378;80;21289;-74
2021/04/18 07:22:29;;;;;;;8.48;5.28;;;10.70;68.70;;;;;;1779439;81;21146;-73
2021/04/18 07:25:02;;;;;;;10.23;6.30;;;10.60;69.00;;;;;;1779600;80;21153;-72
2021/04/18 07:27:47;;;;;;;8.85;5.70;;;10.60;70.80;;;;;;1779383;80;21287;-72
2021/04/18 07:30:23;;;;;;;13.28;7.33;;;10.70;69.50;;;;;;1779409;81;21150;-73
2021/04/18 07:33:06;;;;;;;10.03;6.08;;;10.70;71.50;;;;;;1782805;80;21157;-73
2021/04/18 07:35:40;;;;;;;11.80;6.58;;;10.80;72.60;;;;;;1787819;80;21126;-73
2021/04/18 07:38:22;;;;;;;9.45;6.05;;;10.80;73.40;;;;;;1787605;80;21094;-73
2021/04/18 07:40:57;;;;;;;10.95;6.55;;;10.90;73.00;;;;;;1787812;80;21687;-73
2021/04/18 07:43:25;;;;;;;11.63;6.75;;;10.90;73.10;;;;;;1746145;82;21189;-73
2021/04/18 07:45:52;;;;;;;11.70;6.35;;;11.00;73.30;;;;;;1787607;80;21157;-74
2021/04/18 07:48:21;;;;;;;9.65;6.55;;;11.00;72.90;;;;;;1787884;80;21276;-73
2021/04/18 07:50:49;;;;;;;10.13;5.95;;;11.10;72.70;;;;;;1787703;80;21295;-73
2021/04/18 07:53:18;;;;;;;10.23;6.00;;;11.10;70.50;;;;;;1787600;80;21149;-73
2021/04/18 07:55:46;;;;;;;8.65;5.95;;;11.10;71.80;;;;;;1787808;80;21581;-73
2021/04/18 07:58:15;;;;;;;8.38;5.22;;;11.10;72.60;;;;;;1787770;80;21548;-73
2021/04/18 08:00:43;;;;;;;9.98;6.17;;;11.00;70.80;;;;;;1787672;80;21155;-72
2021/04/18 08:03:17;;;;;;;9.53;6.12;;;11.00;69.30;;;;;;1787806;80;21283;-72
2021/04/18 08:05:46;;;;;;;9.58;5.47;;;11.00;68.60;;;;;;1787653;80;21259;-73
2021/04/18 08:08:15;;;;;;;8.88;5.45;;;10.90;70.70;;;;;;1788146;80;21295;-73
2021/04/18 08:10:47;;;;;;;17.82;9.80;;;11.00;69.70;;;;;;1787562;80;21126;-73
2021/04/18 08:13:21;;;;;;;13.78;6.85;;;11.10;69.00;;;;;;1787607;80;21114;-74
2021/04/18 08:16:08;;;;;;;8.85;5.42;;;11.10;68.30;;;;;;1787763;80;21142;-74
2021/04/18 08:18:43;;;;;;;8.33;4.58;;;11.20;69.50;;;;;;1786994;80;21603;-73
2021/04/18 08:21:40;;;;;;;8.63;5.00;;;11.40;68.30;;;;;;1786448;80;21136;-74
2021/04/18 08:24:20;;;;;;;7.30;4.47;;;11.60;67.00;;;;;;1787258;80;21302;-73
2021/04/18 08:27:11;;;;;;;10.65;5.10;;;11.80;64.90;;;;;;1786797;80;21145;-74
2021/04/18 08:29:49;;;;;;;8.43;4.67;;;11.90;63.00;;;;;;1787576;80;21157;-74
2021/04/18 08:32:48;;;;;;;8.63;4.70;;;12.10;62.90;;;;;;1824284;77;23045;-74
2021/04/18 08:35:22;;;;;;;7.22;4.40;;;12.20;62.80;;;;;;1828190;78;21113;-74
2021/04/18 08:38:14;;;;;;;8.73;4.62;;;12.20;60.90;;;;;;1828080;78;21311;-75
2021/04/18 08:40:44;;;;;;;7.87;5.08;;;12.20;60.90;;;;;;1828042;78;21128;-74
2021/04/18 08:43:26;;;;;;;9.53;4.85;;;12.30;61.30;;;;;;1828247;78;21603;-73
2021/04/18 08:45:57;;;;;;;6.28;4.35;;;12.30;60.30;;;;;;1828372;78;21287;-74
2021/04/18 08:48:25;;;;;;;9.88;5.00;;;12.20;60.90;;;;;;1828366;78;21262;-73
2021/04/18 08:51:07;;;;;;;9.30;4.83;;;12.20;62.20;;;;;;1828191;78;21129;-74
2021/04/18 08:53:57;;;;;;;10.00;5.47;;;12.20;63.10;;;;;;1828174;78;21160;-73
2021/04/18 08:56:46;;;;;;;8.50;5.35;;;12.20;64.50;;;;;;1828257;78;21094;-73
2021/04/18 08:59:16;;;;;;;10.20;5.15;;;12.20;64.80;;;;;;1828163;78;21101;-72
2021/04/18 09:02:09;;;;;;;9.88;5.22;;;12.20;64.20;;;;;;1828029;78;21697;-73
2021/04/18 09:04:45;;;;;;;10.70;5.55;;;12.20;63.80;;;;;;1828414;78;21271;-73
2021/04/18 09:07:17;;;;;;;9.68;5.35;;;12.30;65.50;;;;;;1828369;78;21662;-73
2021/04/18 09:09:46;;;;;;;10.15;5.30;;;12.40;64.40;;;;;;1828242;78;21575;-72
2021/04/18 09:12:17;;;;;;;9.25;5.83;;;12.40;64.60;;;;;;1828068;78;21148;-72
2021/04/18 09:14:48;;;;;;;9.78;5.55;;;12.40;63.90;;;;;;1828327;78;21267;-73
2021/04/18 09:17:26;;;;;;;11.12;5.53;;;12.50;62.80;;;;;;1828342;78;21282;-73
2021/04/18 09:20:08;;;;;;;9.85;5.47;;;12.50;61.30;;;;;;1828223;78;21713;-73
2021/04/18 09:22:43;;;;;;;9.20;5.70;;;12.60;61.40;;;;;;1828332;78;21548;-74
2021/04/18 09:25:19;;;;;;;8.20;5.30;;;12.70;60.90;;;;;;1828121;78;21090;-73
2021/04/18 09:27:51;;;;;;;10.15;5.30;;;12.80;62.00;;;;;;1828234;78;21275;-73
2021/04/18 09:30:26;;;;;;;9.85;4.90;;;13.00;59.30;;;;;;1828080;78;21794;-73
2021/04/18 09:32:59;;;;;;;7.97;4.92;;;13.20;56.30;;;;;;1828278;78;21588;-73
2021/04/18 09:35:29;;;;;;;9.40;4.78;;;13.30;55.10;;;;;;1828088;78;21124;-72
2021/04/18 09:38:03;;;;;;;11.05;5.33;;;13.40;55.00;;;;;;1828172;78;21729;-72
2021/04/18 09:40:36;;;;;;;8.30;5.37;;;13.50;55.80;;;;;;1828353;78;21160;-72
2021/04/18 09:43:07;;;;;;;9.65;5.35;;;13.70;54.40;;;;;;1827769;78;21961;-73
2021/04/18 09:45:36;;;;;;;11.97;7.10;;;13.70;53.30;;;;;;1827511;78;21153;-72
2021/04/18 09:48:17;;;;;;;8.45;5.75;;;13.70;52.40;;;;;;1827629;78;21137;-72
2021/04/18 09:51:04;;;;;;;8.20;6.03;;;13.50;52.80;;;;;;1828083;78;21518;-72
2021/04/18 09:53:32;;;;;;;10.58;6.22;;;13.40;53.20;;;;;;1827734;78;21549;-71
2021/04/18 09:56:05;;;;;;;8.73;5.80;;;13.30;53.20;;;;;;1827676;78;21552;-73
2021/04/18 09:58:40;;;;;;;8.75;6.25;;;13.20;54.50;;;;;;1827500;78;21116;-74
2021/04/18 10:01:29;;;;;;;9.75;6.25;;;13.20;54.10;;;;;;1827922;78;21137;-73
2021/04/18 10:03:57;;;;;;;9.20;6.72;;;13.20;54.80;;;;;;1827721;78;21564;-73
2021/04/18 10:06:27;;;;;;;9.13;6.03;;;13.10;54.30;;;;;;1827784;78;21113;-73
2021/04/18 10:09:03;;;;;;;10.32;6.35;;;13.10;54.50;;;;;;1827382;78;21575;-73
2021/04/18 10:11:31;;;;;;;8.75;5.60;;;13.00;54.90;;;;;;1827608;78;21133;-74
2021/04/18 10:14:00;;;;;;;9.18;6.45;;;13.00;55.70;;;;;;1827490;78;21184;-73
2021/04/18 10:16:41;;;;;;;12.07;6.45;;;12.80;55.00;;;;;;1827498;78;21161;-74
2021/04/18 10:19:15;;;;;;;10.40;6.92;;;12.80;56.00;;;;;;1827517;78;21161;-74
2021/04/18 10:21:46;;;;;;;11.60;6.62;;;12.70;56.50;;;;;;1827688;78;21144;-74
2021/04/18 10:24:37;;;;;;;9.80;6.37;;;12.70;57.10;;;;;;1827064;78;21144;-73
2021/04/18 10:27:08;;;;;;;11.08;7.00;;;12.80;57.10;;;;;;1788703;78;21149;-73
2021/04/18 10:29:38;;;;;;;11.35;6.90;;;12.80;56.80;;;;;;1827889;78;21132;-74
2021/04/18 10:32:08;;;;;;;10.88;7.40;;;12.70;58.10;;;;;;1822319;78;21114;-73
2021/04/18 10:34:37;;;;;;;11.35;6.97;;;12.70;58.20;;;;;;1819112;79;21173;-74
2021/04/18 10:37:05;;;;;;;11.60;7.60;;;12.60;58.20;;;;;;1819129;78;21620;-73
2021/04/18 10:39:33;;;;;;;13.40;7.53;;;12.50;58.50;;;;;;1819288;78;21122;-73
2021/04/18 10:42:03;;;;;;;12.73;7.75;;;12.40;59.00;;;;;;1819086;78;21149;-73
2021/04/18 10:44:30;;;;;;;9.98;7.40;;;12.50;59.10;;;;;;1819132;78;21591;-73
2021/04/18 10:47:03;;;;;;;16.30;9.35;;;12.40;59.90;;;;;;1819125;79;21166;-73
2021/04/18 10:49:31;;;;;;;11.85;8.15;;;12.50;59.40;;;;;;1819145;79;21126;-74
2021/04/18 10:52:01;;;;;;;11.12;6.90;;;12.40;59.20;;;;;;1819078;79;21161;-73
2021/04/18 10:54:29;;;;;;;11.03;7.30;;;12.30;59.80;;;;;;1819150;79;21157;-74
2021/04/18 10:56:56;;;;;;;11.20;7.85;;;12.30;59.90;;;;;;1819208;79;21153;-74
2021/04/18 10:59:24;;;;;;;10.72;7.40;;;12.20;60.70;;;;;;1819466;79;21148;-73
2021/04/18 11:01:53;;;;;;;10.82;7.00;;;12.30;60.00;;;;;;1819094;79;21141;-74
2021/04/18 11:04:21;;;;;;;8.88;6.30;;;12.30;59.90;;;;;;1819102;79;21156;-74
2021/04/18 11:06:49;;;;;;;11.45;6.03;;;12.30;60.30;;;;;;1819074;79;21157;-74
2021/04/18 11:09:17;;;;;;;8.60;5.83;;;12.40;60.40;;;;;;1819316;78;21574;-74
2021/04/18 11:11:45;;;;;;;12.88;6.37;;;12.40;61.00;;;;;;1819251;79;21153;-74
2021/04/18 11:14:12;;;;;;;10.45;6.53;;;12.50;61.10;;;;;;1819270;78;21149;-73
2021/04/18 11:16:40;;;;;;;8.63;5.90;;;12.50;60.10;;;;;;1819160;78;21595;-73
2021/04/18 11:19:08;;;;;;;11.75;6.70;;;12.60;61.20;;;;;;1819072;78;21153;-74
2021/04/18 11:21:37;;;;;;;9.63;5.80;;;12.50;59.70;;;;;;1819077;79;21114;-73
2021/04/18 11:24:06;;;;;;;9.65;5.90;;;12.50;59.40;;;;;;1819372;79;21132;-73
2021/04/18 11:26:33;;;;;;;10.45;7.03;;;12.50;61.00;;;;;;1819267;79;21612;-72
2021/04/18 11:29:03;;;;;;;9.68;6.80;;;12.30;60.40;;;;;;1819275;79;21149;-73
2021/04/18 11:31:31;;;;;;;9.40;5.53;;;12.20;60.20;;;;;;1820736;79;21152;-73
2021/04/18 11:33:58;;;;;;;12.40;7.08;;;12.20;60.90;;;;;;1824837;79;21142;-74
2021/04/18 11:36:26;;;;;;;11.85;6.83;;;12.20;62.20;;;;;;1825179;79;21110;-72
2021/04/18 11:38:56;;;;;;;9.98;7.12;;;12.30;63.30;;;;;;1824131;79;21569;-73
2021/04/18 11:41:25;;;;;;;11.88;6.55;;;12.30;64.10;;;;;;1823712;79;21149;-74
2021/04/18 11:43:53;;;;;;;10.23;6.70;;;12.30;64.10;;;;;;1824787;79;21149;-74
2021/04/18 11:46:21;;;;;;;11.28;5.72;;;12.40;65.60;;;;;;1824823;79;21181;-73
2021/04/18 11:48:49;;;;;;;8.48;5.45;;;12.30;61.30;;;;;;1824790;79;21137;-74
2021/04/18 11:51:17;;;;;;;8.38;5.15;;;12.30;61.10;;;;;;1824802;79;21153;-73
2021/04/18 11:53:44;;;;;;;9.05;5.00;;;12.30;60.10;;;;;;1824797;79;21165;-72
2021/04/18 11:56:12;;;;;;;9.15;5.58;;;12.30;60.30;;;;;;1824788;79;21583;-73
2021/04/18 11:58:40;;;;;;;9.30;5.37;;;12.40;62.10;;;;;;1825103;79;21157;-74
2021/04/18 12:01:10;;;;;;;10.72;5.10;;;12.40;63.70;;;;;;1824795;79;21153;-75
2021/04/18 12:03:37;;;;;;;9.50;5.58;;;12.50;61.10;;;;;;1824798;79;21153;-75
2021/04/18 12:06:06;;;;;;;9.63;5.05;;;12.60;62.60;;;;;;1824855;79;21536;-75
2021/04/18 12:08:35;;;;;;;7.25;5.05;;;12.60;63.50;;;;;;1824819;79;21149;-74
2021/04/18 12:11:04;;;;;;;7.87;4.90;;;12.50;61.50;;;;;;1824952;79;21169;-74
2021/04/18 12:13:32;;;;;;;7.80;4.85;;;12.60;63.50;;;;;;1824974;79;21145;-74
2021/04/18 12:16:01;;;;;;;8.03;4.65;;;12.70;62.10;;;;;;1824879;79;21156;-74
2021/04/18 12:18:29;;;;;;;7.20;4.58;;;12.80;64.70;;;;;;1824803;79;21149;-75
2021/04/18 12:20:57;;;;;;;6.05;3.90;;;12.90;59.70;;;;;;1824977;79;21137;-73
2021/04/18 12:23:25;;;;;;;9.28;4.83;;;13.00;58.10;;;;;;1824987;79;21153;-73
2021/04/18 12:25:52;;;;;;;10.50;4.37;;;13.10;58.80;;;;;;1824900;79;21143;-75
2021/04/18 12:28:20;;;;;;;6.50;4.20;;;13.10;58.30;;;;;;1825003;79;21575;-74
2021/04/18 12:30:47;;;;;;;7.95;4.25;;;13.10;57.60;;;;;;1824741;79;21153;-73
2021/04/18 12:33:15;;;;;;;6.05;4.00;;;13.20;57.30;;;;;;1822758;79;21161;-72
2021/04/18 12:35:43;;;;;;;6.05;4.12;;;13.30;57.90;;;;;;1822477;79;21267;-72
2021/04/18 12:38:12;;;;;;;9.30;4.35;;;13.30;58.10;;;;;;1822495;78;21299;-72
2021/04/18 12:40:40;;;;;;;6.37;4.03;;;13.20;57.00;;;;;;1822475;79;21184;-72
2021/04/18 12:43:08;;;;;;;9.10;5.97;;;13.10;58.30;;;;;;1822767;79;21555;-73
2021/04/18 12:45:36;;;;;;;8.25;4.55;;;13.20;57.20;;;;;;1822502;79;21275;-73
2021/04/18 12:48:05;;;;;;;6.20;4.30;;;13.30;56.80;;;;;;1822588;79;21153;-73
2021/04/18 12:50:33;;;;;;;7.20;4.60;;;13.30;56.80;;;;;;1822696;79;21160;-73
2021/04/18 12:53:02;;;;;;;9.50;4.62;;;13.40;56.70;;;;;;1822683;79;21121;-72
2021/04/18 12:55:29;;;;;;;8.20;4.45;;;13.40;56.90;;;;;;1822480;79;21129;-72
2021/04/18 12:57:57;;;;;;;7.90;4.87;;;13.40;56.40;;;;;;1822647;79;21149;-72
2021/04/18 13:00:26;;;;;;;7.85;4.85;;;13.30;57.00;;;;;;1822660;79;21279;-73